Terminal Aerodrome Forecast
Issued by NWS Sioux Falls, SD

Home | Current Version | Previous Version | Graphics & Text | Print | Product List | Glossary Off
Versions: 1 2 3 4 5 6 7 8 9 10 11 12 13 14 15

000
FTUS43 KFSD 210530
TAFHON
TAF
KHON 210530Z 2106/2206 33012KT P6SM -SHRA SCT007 OVC015
      TEMPO 2106/2108 BKN007
     FM211300 32013KT P6SM BKN015
     FM211500 32016G24KT P6SM BKN025
     FM211800 32016G24KT P6SM SCT035
     FM220100 28010KT P6SM SCT100=

USA.gov is the U.S. government's official web portal to all federal, state and local government web resources and services.